Laramie, WY

5:08 AM MDT on August 29, 2014 (GMT -0600)
Laramie Regional | Change Station
CLOSE
Current Station
Airport
Location: Laramie,
Elevation: 7270 ft
Nearby Weather Stations

Elev 7270 ft 41.32 °N, 105.67 °W | Updated 15 minutes ago

Clear
Clear
44 °F
Feels Like 44 °F
N
0
Wind Variable Wind from North

Today
High -- | Low -- °F
--% Chance of Precip.
Yesterday
High -- | Low -- °F
Precip. -- in
6:26 AM 7:40 PM
Waxing Crescent, 13% visible
Pressure 29.94 in
Visibility 10.0 miles
Clouds Clear
Dew Point 41 °F
Humidity 89%
Rainfall 0.00 in
Snow Depth 4 in
UV 0 out of 12
Pollen 5.70 out of 12
Air Quality Not available.
Flu Activity Not available.
METAR KLAR 291053Z AUTO 00000KT 10SM CLR 07/05 A3020 RMK AO2 SLP139 T00670050

More Conditions Fewer Conditions

Pressure 29.94 in
Visibility 10.0 miles
Clouds Clear
Dew Point 41 °F
Humidity 89%
Rainfall 0.00 in
Snow Depth 4 in
UV 0 out of 12
Pollen 5.70 out of 12
Air Quality Not available.
Flu Activity Not available.
METAR KLAR 291053Z AUTO 00000KT 10SM CLR 07/05 A3020 RMK AO2 SLP139 T00670050

More Conditions Fewer Conditions

10-Day Weather Forecast

Almanac

Astronomy

Aug. 29, 2014 Rise Set
Actual Time 6:26 AM MDT 7:40 PM MDT
Civil Twilight 5:57 AM MDT 8:08 PM MDT
Nautical Twilight 5:23 AM MDT 8:42 PM MDT
Astronomical Twilight 4:47 AM MDT 9:18 PM MDT
Moon 10:21 AM MDT 9:36 PM MDT
Length of Visible Light 14h 11m
Length of Day
13h 14m
Tomorrow will be 2m 38s shorter.
Waxing Crescent, 13% of the Moon is Illuminated
Today
Waxing Crescent
Sep 2
First Quarter
Sep 8
Full
Sep 15
Last Quarter
Sep 24
New

Today's Extremes

State Highs State Lows

Community

WunderPhotos

Upload Photos

1,748,211 photos uploaded!

Nearby

Snow Depth

Station Depth Elevation
Crow Creek 4 in 8330 ft
Cinnabar Park 1 in 9690 ft
Brooklyn Lake 0 in 10220 ft
Sand Lake 0 in 10050 ft
North French Creek 0 in 10130 ft

Earthquake Activity

City Distance Mag. Time & Date
No recent earthquake activity has been reported nearby.
Minimum magnitude displayed is 2.5.

Coastal Water Temperatures

Place Temperature
No Stations Reporting

Nearby Weather Stations